Terminal Aerodrome Forecast
Issued by NWS

Home | Current Version | Previous Version | Text Only | Print | Product List | Glossary On
Versions: 1 2 3 4 5 6 7 8 9 10 11 12 13
000
FTUS45 KGJT 061133
TAFCNY
TAF
KCNY 061133Z 0612/0712 VRB04KT P6SM FEW250
     FM061700 02004KT P6SM SCT200
     FM062000 29007KT P6SM SCT200
     FM070200 29009KT P6SM BKN150=

USA.gov is the U.S. government's official web portal to all federal, state and local government web resources and services.